Horsens, Denmark
Current Conditions -  °F | °C
As of 1:20 PM on Wednesday 28 Jan 2015 (Local Time) from EKBI Reporting Station
Drizzle Drizzle  
Wind Chill: 29°   Ceiling: 600
Heat Index: 39°   Visibility: 1.2mi
Dew Point: 37°   Wind: 21mph
Humidity: 93%   Direction: 190°S
Pressure: 29.29"   Gusts: 33mph
Location:  55.86°N, 9.85°E
Report Text: EKBI 281220Z AUTO 19018G29KT 160V220 2000NDV DZ BR BKN006///04/03 Q0992
Loading
Personal Weather Stations






























Interactive Weather Map New forecast layout! Learn more

10-Day Weather Forecast

Advertisements
Track Severe Weather on mobile